Time,TemperatureF,DewpointF,PressureIn,WindDirection,WindDirectionDegrees,WindSpeedMPH,WindSpeedGustMPH,Humidity,HourlyPrecipIn,Conditions,Clouds,dailyrainin,SoftwareType,DateUTC
2013-02-15 00:02:00,61.7,49.9,30.01,NE,45,7.8,9.4,65,0.00,,,0.00,WUHU216HW,2013-02-14 21:02:00,
2013-02-15 00:07:00,61.6,49.7,30.02,NW,315,4.7,7.8,65,0.00,,,0.00,WUHU216HW,2013-02-14 21:07:00,
2013-02-15 00:12:00,61.6,49.7,30.02,WNW,293,3.1,6.7,65,0.00,,,0.00,WUHU216HW,2013-02-14 21:12:00,
2013-02-15 00:17:00,61.6,50.1,30.02,NNW,338,6.7,8.5,66,0.00,,,0.00,WUHU216HW,2013-02-14 21:17:00,
2013-02-15 00:22:00,61.4,50.0,30.02,West,270,7.8,8.5,66,0.00,,,0.00,WUHU216HW,2013-02-14 21:22:00,
2013-02-15 00:27:00,61.0,49.2,30.02,NW,315,4.7,8.5,65,0.00,,,0.00,WUHU216HW,2013-02-14 21:27:00,
2013-02-15 00:32:00,60.8,49.1,30.01,NW,315,4.0,7.6,65,0.00,,,0.00,WUHU216HW,2013-02-14 21:32:00,
2013-02-15 00:37:00,60.7,49.3,30.02,WNW,293,4.7,7.2,66,0.00,,,0.00,WUHU216HW,2013-02-14 21:37:00,
2013-02-15 00:42:00,60.5,49.2,30.02,West,270,5.6,6.9,66,0.00,,,0.00,WUHU216HW,2013-02-14 21:42:00,
2013-02-15 00:47:00,60.1,48.8,30.02,WNW,293,6.5,7.6,66,0.00,,,0.00,WUHU216HW,2013-02-14 21:47:00,
2013-02-15 00:52:00,60.1,49.1,30.02,WNW,293,7.6,7.6,67,0.00,,,0.00,WUHU216HW,2013-02-14 21:52:00,
2013-02-15 00:57:00,59.9,49.4,30.02,WNW,293,4.9,7.6,68,0.00,,,0.00,WUHU216HW,2013-02-14 21:57:00,
2013-02-15 01:02:00,60.1,49.6,30.01,West,270,7.8,9.2,68,0.00,,,0.00,WUHU216HW,2013-02-14 22:02:00,
2013-02-15 01:07:00,60.1,50.0,30.01,West,270,6.9,9.2,69,0.00,,,0.00,WUHU216HW,2013-02-14 22:07:00,
2013-02-15 01:12:00,60.1,50.0,30.01,WNW,293,9.8,10.7,69,0.00,,,0.00,WUHU216HW,2013-02-14 22:12:00,
2013-02-15 01:17:00,59.9,49.8,30.01,WNW,293,6.0,10.7,69,0.00,,,0.00,WUHU216HW,2013-02-14 22:17:00,
2013-02-15 01:22:00,59.9,49.8,30.01,West,270,10.1,10.5,69,0.00,,,0.00,WUHU216HW,2013-02-14 22:22:00,
2013-02-15 01:27:00,59.9,49.8,30.01,West,270,8.3,11.6,69,0.00,,,0.00,WUHU216HW,2013-02-14 22:27:00,
2013-02-15 01:32:00,59.9,49.8,30.01,WNW,293,4.9,11.6,69,0.00,,,0.00,WUHU216HW,2013-02-14 22:32:00,
2013-02-15 01:37:00,59.8,49.6,30.01,WNW,293,8.3,8.5,69,0.00,,,0.00,WUHU216HW,2013-02-14 22:37:00,
2013-02-15 01:42:00,59.8,49.6,30.02,WNW,293,3.4,8.5,69,0.00,,,0.00,WUHU216HW,2013-02-14 22:42:00,
2013-02-15 01:47:00,59.6,49.9,30.01,WNW,293,7.6,8.7,70,0.00,,,0.00,WUHU216HW,2013-02-14 22:47:00,
2013-02-15 01:52:00,59.4,49.7,30.01,West,270,6.3,9.2,70,0.00,,,0.00,WUHU216HW,2013-02-14 22:52:00,
2013-02-15 01:57:00,59.4,50.0,30.00,West,270,8.7,9.2,71,0.00,,,0.00,WUHU216HW,2013-02-14 22:57:00,
2013-02-15 02:02:00,59.4,50.0,30.00,West,270,5.4,8.7,71,0.00,,,0.00,WUHU216HW,2013-02-14 23:02:00,
2013-02-15 02:07:00,59.4,50.0,30.00,WNW,293,5.1,8.7,71,0.00,,,0.00,WUHU216HW,2013-02-14 23:07:00,
2013-02-15 02:12:00,59.4,50.4,30.00,West,270,7.6,7.6,72,0.00,,,0.00,WUHU216HW,2013-02-14 23:12:00,
2013-02-15 02:17:00,59.2,50.2,30.00,NW,315,5.4,8.5,72,0.00,,,0.00,WUHU216HW,2013-02-14 23:17:00,
2013-02-15 02:22:00,59.2,50.6,30.00,NW,315,5.6,8.5,73,0.00,,,0.00,WUHU216HW,2013-02-14 23:22:00,
2013-02-15 02:27:00,59.2,50.6,30.00,WNW,293,5.6,8.3,73,0.00,,,0.00,WUHU216HW,2013-02-14 23:27:00,
2013-02-15 02:32:00,59.0,50.4,29.99,WNW,293,6.5,8.3,73,0.00,,,0.00,WUHU216HW,2013-02-14 23:32:00,
2013-02-15 02:37:00,59.0,50.8,29.99,NW,315,6.7,8.1,74,0.00,,,0.00,WUHU216HW,2013-02-14 23:37:00,
2013-02-15 02:42:00,59.0,50.8,29.99,West,270,6.3,7.8,74,0.00,,,0.00,WUHU216HW,2013-02-14 23:42:00,
2013-02-15 02:47:00,59.0,51.1,29.99,NW,315,5.8,7.8,75,0.00,,,0.00,WUHU216HW,2013-02-14 23:47:00,
2013-02-15 02:53:00,59.2,51.3,29.99,WNW,293,6.5,9.8,75,0.00,,,0.00,WUHU216HW,2013-02-14 23:53:00,
2013-02-15 02:57:00,59.0,51.5,29.99,WNW,293,5.8,9.8,76,0.00,,,0.00,WUHU216HW,2013-02-14 23:57:00,
2013-02-15 03:03:00,59.0,51.5,29.99,NW,315,6.3,7.6,76,0.00,,,0.00,WUHU216HW,2013-02-15 00:03:00,
2013-02-15 03:07:00,59.0,51.5,29.99,NNW,338,7.4,7.8,76,0.00,,,0.00,WUHU216HW,2013-02-15 00:07:00,
2013-02-15 03:13:00,58.9,51.3,29.99,NNE,23,6.7,8.7,76,0.00,,,0.00,WUHU216HW,2013-02-15 00:13:00,
2013-02-15 03:18:00,58.9,51.7,29.99,WNW,293,6.3,8.7,77,0.00,,,0.00,WUHU216HW,2013-02-15 00:18:00,
2013-02-15 03:23:00,58.9,51.7,29.99,NW,315,7.4,8.3,77,0.00,,,0.00,WUHU216HW,2013-02-15 00:23:00,
2013-02-15 03:28:00,58.9,52.0,29.99,WNW,293,6.9,8.1,78,0.00,,,0.00,WUHU216HW,2013-02-15 00:28:00,
2013-02-15 03:33:00,58.9,52.0,29.99,WNW,293,5.6,8.5,78,0.00,,,0.00,WUHU216HW,2013-02-15 00:33:00,
2013-02-15 03:38:00,58.9,52.0,29.99,NW,315,6.5,8.5,78,0.00,,,0.00,WUHU216HW,2013-02-15 00:38:00,
2013-02-15 03:43:00,58.7,51.8,29.99,NNW,338,6.0,8.3,78,0.00,,,0.00,WUHU216HW,2013-02-15 00:43:00,
2013-02-15 03:48:00,58.7,52.2,29.99,WNW,293,4.9,7.6,79,0.00,,,0.00,WUHU216HW,2013-02-15 00:48:00,
2013-02-15 03:53:00,58.9,52.4,29.99,WNW,293,5.1,7.6,79,0.00,,,0.00,WUHU216HW,2013-02-15 00:53:00,
2013-02-15 03:58:00,58.9,52.4,29.99,NW,315,6.5,7.8,79,0.00,,,0.00,WUHU216HW,2013-02-15 00:58:00,
2013-02-15 04:03:00,59.0,52.6,29.99,NW,315,5.6,7.8,79,0.00,,,0.00,WUHU216HW,2013-02-15 01:03:00,
2013-02-15 04:08:00,59.0,52.6,29.99,NW,315,5.4,7.8,79,0.00,,,0.00,WUHU216HW,2013-02-15 01:08:00,
2013-02-15 04:13:00,59.2,52.4,29.99,WNW,293,3.4,7.2,78,0.00,,,0.00,WUHU216HW,2013-02-15 01:13:00,
2013-02-15 04:18:00,59.0,52.2,29.99,NW,315,3.8,6.3,78,0.00,,,0.00,WUHU216HW,2013-02-15 01:18:00,
2013-02-15 04:23:00,58.9,52.0,29.99,NW,315,2.9,4.7,78,0.00,,,0.00,WUHU216HW,2013-02-15 01:23:00,
2013-02-15 04:28:00,58.9,52.0,29.99,West,270,3.6,4.7,78,0.00,,,0.00,WUHU216HW,2013-02-15 01:28:00,
2013-02-15 04:33:00,58.9,52.0,29.99,West,270,3.4,4.7,78,0.00,,,0.00,WUHU216HW,2013-02-15 01:33:00,
2013-02-15 04:38:00,58.7,51.5,30.00,West,270,4.0,5.8,77,0.00,,,0.00,WUHU216HW,2013-02-15 01:38:00,
2013-02-15 04:43:00,58.7,51.5,30.00,West,270,4.0,5.8,77,0.00,,,0.00,WUHU216HW,2013-02-15 01:43:00,
2013-02-15 04:48:00,58.7,51.5,30.00,WSW,248,3.6,4.7,77,0.00,,,0.00,WUHU216HW,2013-02-15 01:48:00,
2013-02-15 04:53:00,58.5,51.7,30.00,West,270,4.7,4.9,78,0.00,,,0.00,WUHU216HW,2013-02-15 01:53:00,
2013-02-15 04:58:00,58.5,51.7,30.01,WSW,248,3.6,5.1,78,0.00,,,0.00,WUHU216HW,2013-02-15 01:58:00,
2013-02-15 05:03:00,58.5,51.7,30.01,West,270,4.7,5.6,78,0.00,,,0.00,WUHU216HW,2013-02-15 02:03:00,
2013-02-15 05:08:00,58.5,51.7,30.01,WNW,293,5.4,6.5,78,0.00,,,0.00,WUHU216HW,2013-02-15 02:08:00,
2013-02-15 05:13:00,58.5,51.7,30.02,West,270,8.5,8.5,78,0.00,,,0.00,WUHU216HW,2013-02-15 02:13:00,
2013-02-15 05:18:00,58.5,51.7,30.02,WNW,293,6.3,8.5,78,0.00,,,0.00,WUHU216HW,2013-02-15 02:18:00,
2013-02-15 05:23:00,58.3,51.5,30.02,WNW,293,8.1,8.5,78,0.00,,,0.00,WUHU216HW,2013-02-15 02:23:00,
2013-02-15 05:28:00,58.3,51.8,30.02,WNW,293,6.9,8.1,79,0.00,,,0.00,WUHU216HW,2013-02-15 02:28:00,
2013-02-15 05:33:00,58.3,51.8,30.02,WNW,293,4.3,8.1,79,0.00,,,0.00,WUHU216HW,2013-02-15 02:33:00,
2013-02-15 05:38:00,58.5,51.7,30.02,WNW,293,6.3,7.4,78,0.00,,,0.00,WUHU216HW,2013-02-15 02:38:00,
2013-02-15 05:43:00,58.3,51.5,30.02,WNW,293,4.7,7.4,78,0.00,,,0.00,WUHU216HW,2013-02-15 02:43:00,
2013-02-15 05:48:00,58.1,51.3,30.02,WNW,293,6.0,7.6,78,0.00,,,0.00,WUHU216HW,2013-02-15 02:48:00,
2013-02-15 05:53:00,58.0,51.1,30.02,West,270,3.4,7.6,78,0.00,,,0.00,WUHU216HW,2013-02-15 02:53:00,
2013-02-15 05:58:00,58.0,51.1,30.02,West,270,3.4,6.0,78,0.00,,,0.00,WUHU216HW,2013-02-15 02:58:00,
2013-02-15 06:03:00,57.8,50.9,30.03,West,270,5.4,6.9,78,0.00,,,0.00,WUHU216HW,2013-02-15 03:03:00,
2013-02-15 06:08:00,57.6,51.1,30.03,WNW,293,6.3,7.2,79,0.00,,,0.00,WUHU216HW,2013-02-15 03:08:00,
2013-02-15 06:13:00,57.8,51.3,30.03,West,270,6.3,7.4,79,0.00,,,0.00,WUHU216HW,2013-02-15 03:13:00,
2013-02-15 06:18:00,57.8,50.9,30.03,WSW,248,6.3,7.4,78,0.00,,,0.00,WUHU216HW,2013-02-15 03:18:00,
2013-02-15 06:23:00,58.0,51.1,30.04,West,270,6.3,7.4,78,0.00,,,0.00,WUHU216HW,2013-02-15 03:23:00,
2013-02-15 06:28:00,58.1,51.3,30.04,West,270,6.3,7.4,78,0.00,,,0.00,WUHU216HW,2013-02-15 03:28:00,
2013-02-15 06:33:00,58.3,51.5,30.04,WSW,248,4.3,6.9,78,0.00,,,0.00,WUHU216HW,2013-02-15 03:33:00,
2013-02-15 06:38:00,58.3,51.5,30.04,West,270,5.1,6.9,78,0.00,,,0.00,WUHU216HW,2013-02-15 03:38:00,
2013-02-15 06:43:00,58.1,50.9,30.04,SSW,203,5.1,6.9,77,0.00,,,0.00,WUHU216HW,2013-02-15 03:43:00,
2013-02-15 06:48:00,58.1,50.9,30.04,WSW,248,5.4,6.5,77,0.00,,,0.00,WUHU216HW,2013-02-15 03:48:00,
2013-02-15 06:53:00,58.3,51.1,30.04,West,270,5.4,6.9,77,0.00,,,0.00,WUHU216HW,2013-02-15 03:53:00,
2013-02-15 06:58:00,58.5,51.7,30.04,West,270,7.6,7.6,78,0.00,,,0.00,WUHU216HW,2013-02-15 03:58:00,
2013-02-15 07:03:00,58.5,51.7,30.05,West,270,5.4,8.1,78,0.00,,,0.00,WUHU216HW,2013-02-15 04:03:00,
2013-02-15 07:08:00,58.5,51.7,30.05,West,270,6.5,8.3,78,0.00,,,0.00,WUHU216HW,2013-02-15 04:08:00,
2013-02-15 07:13:00,58.7,51.8,30.05,WNW,293,5.8,8.3,78,0.00,,,0.00,WUHU216HW,2013-02-15 04:13:00,
2013-02-15 07:18:00,59.0,51.8,30.05,WNW,293,7.4,7.4,77,0.00,,,0.00,WUHU216HW,2013-02-15 04:18:00,
2013-02-15 07:23:00,59.2,52.0,30.05,West,270,6.9,8.3,77,0.00,,,0.00,WUHU216HW,2013-02-15 04:23:00,
2013-02-15 07:28:00,59.6,52.4,30.05,West,270,5.8,8.3,77,0.00,,,0.00,WUHU216HW,2013-02-15 04:28:00,
2013-02-15 07:33:00,59.8,52.2,30.06,WNW,293,7.6,8.3,76,0.00,,,0.00,WUHU216HW,2013-02-15 04:33:00,
2013-02-15 07:38:00,60.1,52.6,30.06,West,270,7.2,8.3,76,0.00,,,0.00,WUHU216HW,2013-02-15 04:38:00,
2013-02-15 07:43:00,60.1,52.6,30.06,West,270,6.7,8.5,76,0.00,,,0.00,WUHU216HW,2013-02-15 04:43:00,
2013-02-15 07:48:00,60.7,53.1,30.06,West,270,7.8,9.4,76,0.00,,,0.00,WUHU216HW,2013-02-15 04:48:00,
2013-02-15 07:53:00,61.0,53.5,30.06,NNW,338,9.4,10.5,76,0.00,,,0.00,WUHU216HW,2013-02-15 04:53:00,
2013-02-15 07:58:00,61.6,53.6,30.06,West,270,11.0,11.4,75,0.00,,,0.00,WUHU216HW,2013-02-15 04:58:00,
2013-02-15 08:00:00,61.6,53.6,30.06,West,270,9.2,11.4,75,0.00,,,0.00,WUHU216HW,2013-02-15 05:00:00,
2013-02-15 08:05:00,62.1,54.1,30.06,North,0,6.3,11.4,75,0.00,,,0.00,WUHU216HW,2013-02-15 05:05:00,
2013-02-15 08:10:00,62.5,54.0,30.06,NW,315,7.2,11.4,74,0.00,,,0.00,WUHU216HW,2013-02-15 05:10:00,
2013-02-15 08:15:00,62.6,54.2,30.07,NW,315,8.3,9.2,74,0.00,,,0.00,WUHU216HW,2013-02-15 05:15:00,
2013-02-15 08:20:00,63.0,54.9,30.07,WNW,293,7.2,9.4,75,0.00,,,0.00,WUHU216HW,2013-02-15 05:20:00,
2013-02-15 08:25:00,63.4,54.9,30.07,West,270,6.7,9.4,74,0.00,,,0.00,WUHU216HW,2013-02-15 05:25:00,
2013-02-15 08:30:00,63.7,55.3,30.07,WNW,293,6.3,8.5,74,0.00,,,0.00,WUHU216HW,2013-02-15 05:30:00,
2013-02-15 08:35:00,64.3,55.4,30.07,West,270,5.6,8.5,73,0.00,,,0.00,WUHU216HW,2013-02-15 05:35:00,
2013-02-15 08:40:00,64.6,55.8,30.07,NW,315,4.3,8.9,73,0.00,,,0.00,WUHU216HW,2013-02-15 05:40:00,
2013-02-15 08:45:00,65.2,55.2,30.07,NW,315,10.1,14.1,70,0.00,,,0.00,WUHU216HW,2013-02-15 05:45:00,
2013-02-15 08:50:00,65.9,55.5,30.07,NNW,338,10.7,14.1,69,0.00,,,0.00,WUHU216HW,2013-02-15 05:50:00,
2013-02-15 08:55:00,66.1,55.6,30.07,NNW,338,8.5,14.3,69,0.00,,,0.00,WUHU216HW,2013-02-15 05:55:00,
2013-02-15 09:00:00,66.4,55.5,30.07,SW,225,11.2,14.3,68,0.00,,,0.00,WUHU216HW,2013-02-15 06:00:00,
2013-02-15 09:05:00,66.4,55.5,30.07,NW,315,11.0,13.9,68,0.00,,,0.00,WUHU216HW,2013-02-15 06:05:00,
2013-02-15 09:10:00,66.8,55.4,30.07,NW,315,8.3,13.9,67,0.00,,,0.00,WUHU216HW,2013-02-15 06:10:00,
2013-02-15 09:15:00,67.1,55.8,30.07,NW,315,12.3,14.3,67,0.00,,,0.00,WUHU216HW,2013-02-15 06:15:00,
2013-02-15 09:20:00,67.3,55.5,30.07,NW,315,6.9,14.3,66,0.00,,,0.00,WUHU216HW,2013-02-15 06:20:00,
2013-02-15 09:25:00,67.7,55.9,30.07,NW,315,12.8,12.8,66,0.00,,,0.00,WUHU216HW,2013-02-15 06:25:00,
2013-02-15 09:30:00,67.7,55.4,30.07,NW,315,9.6,12.8,65,0.00,,,0.00,WUHU216HW,2013-02-15 06:30:00,
2013-02-15 09:35:00,67.9,55.6,30.07,NW,315,11.6,12.8,65,0.00,,,0.00,WUHU216HW,2013-02-15 06:35:00,
2013-02-15 09:40:00,68.2,56.0,30.07,NW,315,6.3,11.6,65,0.00,,,0.00,WUHU216HW,2013-02-15 06:40:00,
2013-02-15 09:45:00,68.4,55.7,30.07,NW,315,9.8,11.6,64,0.00,,,0.00,WUHU216HW,2013-02-15 06:45:00,
2013-02-15 09:50:00,68.8,56.1,30.07,NW,315,8.5,12.1,64,0.00,,,0.00,WUHU216HW,2013-02-15 06:50:00,
2013-02-15 09:55:00,68.9,55.8,30.07,NNW,338,8.9,12.1,63,0.00,,,0.00,WUHU216HW,2013-02-15 06:55:00,
2013-02-15 10:00:00,69.1,56.0,30.07,North,0,7.6,10.5,63,0.00,,,0.00,WUHU216HW,2013-02-15 07:00:00,
2013-02-15 10:05:00,69.5,55.9,30.07,NNE,23,8.5,12.3,62,0.00,,,0.00,WUHU216HW,2013-02-15 07:05:00,
2013-02-15 10:10:00,69.5,55.9,30.07,NE,45,3.4,12.3,62,0.00,,,0.00,WUHU216HW,2013-02-15 07:10:00,
2013-02-15 10:15:00,69.8,56.3,30.06,NNW,338,4.7,13.0,62,0.00,,,0.00,WUHU216HW,2013-02-15 07:15:00,
2013-02-15 10:20:00,69.8,56.3,30.06,NW,315,6.9,13.0,62,0.00,,,0.00,WUHU216HW,2013-02-15 07:20:00,
2013-02-15 10:25:00,69.8,56.3,30.05,North,0,8.5,10.3,62,0.00,,,0.00,WUHU216HW,2013-02-15 07:25:00,
2013-02-15 10:30:00,70.2,56.2,30.05,North,0,7.2,10.3,61,0.00,,,0.00,WUHU216HW,2013-02-15 07:30:00,
2013-02-15 10:35:00,70.4,56.3,30.05,NW,315,7.4,10.3,61,0.00,,,0.00,WUHU216HW,2013-02-15 07:35:00,
2013-02-15 10:40:00,70.6,56.1,30.05,NW,315,8.7,11.6,60,0.00,,,0.00,WUHU216HW,2013-02-15 07:40:00,
2013-02-15 10:45:00,70.7,56.3,30.05,NNW,338,5.1,11.6,60,0.00,,,0.00,WUHU216HW,2013-02-15 07:45:00,
2013-02-15 10:50:00,70.9,56.4,30.05,North,0,6.0,10.5,60,0.00,,,0.00,WUHU216HW,2013-02-15 07:50:00,
2013-02-15 10:55:00,71.3,56.7,30.04,North,0,10.3,11.9,60,0.00,,,0.00,WUHU216HW,2013-02-15 07:55:00,
2013-02-15 11:00:00,71.3,56.3,30.04,NNW,338,8.9,11.9,59,0.00,,,0.00,WUHU216HW,2013-02-15 08:00:00,
2013-02-15 11:05:00,71.6,56.5,30.04,WNW,293,8.5,11.4,59,0.00,,,0.00,WUHU216HW,2013-02-15 08:05:00,
2013-02-15 11:10:00,71.6,56.5,30.04,North,0,9.2,10.7,59,0.00,,,0.00,WUHU216HW,2013-02-15 08:10:00,
2013-02-15 11:15:00,72.0,56.9,30.04,North,0,6.0,10.7,59,0.00,,,0.00,WUHU216HW,2013-02-15 08:15:00,
2013-02-15 11:20:00,72.0,56.3,30.04,NNW,338,6.9,13.0,58,0.00,,,0.00,WUHU216HW,2013-02-15 08:20:00,
2013-02-15 11:25:00,72.0,55.9,30.04,NNW,338,9.6,13.0,57,0.00,,,0.00,WUHU216HW,2013-02-15 08:25:00,
2013-02-15 11:30:00,72.2,56.1,30.04,NNE,23,3.6,11.6,57,0.00,,,0.00,WUHU216HW,2013-02-15 08:30:00,
2013-02-15 11:35:00,72.7,55.5,30.04,NW,315,4.3,11.4,55,0.00,,,0.00,WUHU216HW,2013-02-15 08:35:00,
2013-02-15 11:40:00,72.9,56.2,30.04,North,0,6.0,12.3,56,0.00,,,0.00,WUHU216HW,2013-02-15 08:40:00,
2013-02-15 11:45:00,73.1,55.8,30.03,North,0,6.3,12.3,55,0.00,,,0.00,WUHU216HW,2013-02-15 08:45:00,
2013-02-15 11:50:00,73.1,55.8,30.03,WNW,293,4.9,12.5,55,0.00,,,0.00,WUHU216HW,2013-02-15 08:50:00,
2013-02-15 11:55:00,73.4,56.7,30.03,North,0,10.7,12.5,56,0.00,,,0.00,WUHU216HW,2013-02-15 08:55:00,
2013-02-15 12:00:00,73.4,56.2,30.03,NE,45,3.1,12.1,55,0.00,,,0.00,WUHU216HW,2013-02-15 09:00:00,
2013-02-15 12:05:00,73.6,55.8,30.03,NW,315,6.9,13.6,54,0.00,,,0.00,WUHU216HW,2013-02-15 09:05:00,
2013-02-15 12:10:00,73.8,56.5,30.03,North,0,4.3,13.6,55,0.00,,,0.00,WUHU216HW,2013-02-15 09:10:00,
2013-02-15 12:15:00,74.0,56.7,30.03,NNE,23,11.6,13.4,55,0.00,,,0.00,WUHU216HW,2013-02-15 09:15:00,
2013-02-15 12:20:00,74.2,57.4,30.02,NE,45,4.7,13.4,56,0.00,,,0.00,WUHU216HW,2013-02-15 09:20:00,
2013-02-15 12:25:00,74.3,57.6,30.02,ENE,68,6.3,12.8,56,0.00,,,0.00,WUHU216HW,2013-02-15 09:25:00,
2013-02-15 12:30:00,74.3,58.1,30.02,NNW,338,5.4,12.8,57,0.00,,,0.00,WUHU216HW,2013-02-15 09:30:00,
2013-02-15 12:35:00,74.3,58.6,30.02,NE,45,9.2,12.8,58,0.00,,,0.00,WUHU216HW,2013-02-15 09:35:00,
2013-02-15 12:40:00,74.3,58.6,30.01,NNW,338,4.0,12.8,58,0.00,,,0.00,WUHU216HW,2013-02-15 09:40:00,
2013-02-15 12:45:00,74.2,58.4,30.01,North,0,5.1,11.0,58,0.00,,,0.00,WUHU216HW,2013-02-15 09:45:00,
2013-02-15 12:50:00,74.5,58.8,30.01,North,0,5.8,10.3,58,0.00,,,0.00,WUHU216HW,2013-02-15 09:50:00,
2013-02-15 12:55:00,74.5,58.8,30.01,NNE,23,9.4,9.8,58,0.00,,,0.00,WUHU216HW,2013-02-15 09:55:00,
2013-02-15 13:00:00,74.5,57.8,30.00,ESE,113,0.4,12.8,56,0.00,,,0.00,WUHU216HW,2013-02-15 10:00:00,
2013-02-15 13:05:00,74.9,59.6,30.00,NE,45,6.0,12.8,59,0.00,,,0.00,WUHU216HW,2013-02-15 10:05:00,
2013-02-15 13:10:00,74.9,58.2,29.99,East,90,6.3,10.5,56,0.00,,,0.00,WUHU216HW,2013-02-15 10:10:00,
2013-02-15 13:15:00,74.9,58.2,29.99,NNE,23,4.7,10.5,56,0.00,,,0.00,WUHU216HW,2013-02-15 10:15:00,
2013-02-15 13:20:00,75.1,58.3,29.99,ENE,68,6.9,10.3,56,0.00,,,0.00,WUHU216HW,2013-02-15 10:20:00,
2013-02-15 13:25:00,75.1,58.8,29.99,ESE,113,3.6,9.6,57,0.00,,,0.00,WUHU216HW,2013-02-15 10:25:00,
2013-02-15 13:30:00,75.2,59.0,29.99,North,0,4.5,9.2,57,0.00,,,0.00,WUHU216HW,2013-02-15 10:30:00,
2013-02-15 13:35:00,75.2,58.0,29.99,North,0,4.9,13.2,55,0.00,,,0.00,WUHU216HW,2013-02-15 10:35:00,
2013-02-15 13:40:00,75.4,57.6,29.99,ENE,68,2.9,13.2,54,0.00,,,0.00,WUHU216HW,2013-02-15 10:40:00,
2013-02-15 13:45:00,75.4,57.6,29.99,ENE,68,6.3,11.9,54,0.00,,,0.00,WUHU216HW,2013-02-15 10:45:00,
2013-02-15 13:50:00,75.2,58.5,29.99,ENE,68,4.9,8.5,56,0.00,,,0.00,WUHU216HW,2013-02-15 10:50:00,
2013-02-15 13:55:00,75.2,58.0,29.98,NE,45,6.5,11.2,55,0.00,,,0.00,WUHU216HW,2013-02-15 10:55:00,
2013-02-15 14:00:00,75.1,57.8,29.98,NE,45,4.7,11.2,55,0.00,,,0.00,WUHU216HW,2013-02-15 11:00:00,
2013-02-15 14:05:00,74.9,58.2,29.98,NNE,23,6.9,10.1,56,0.00,,,0.00,WUHU216HW,2013-02-15 11:05:00,
2013-02-15 14:10:00,74.9,57.6,29.98,North,0,4.0,10.5,55,0.00,,,0.00,WUHU216HW,2013-02-15 11:10:00,
2013-02-15 14:15:00,75.1,56.8,29.98,ESE,113,4.3,10.5,53,0.00,,,0.00,WUHU216HW,2013-02-15 11:15:00,
2013-02-15 14:20:00,75.2,57.4,29.98,East,90,6.0,10.1,54,0.00,,,0.00,WUHU216HW,2013-02-15 11:20:00,
2013-02-15 14:25:00,75.4,58.2,29.98,NNE,23,7.6,11.4,55,0.00,,,0.00,WUHU216HW,2013-02-15 11:25:00,
2013-02-15 14:30:00,75.2,58.5,29.98,North,0,5.6,11.4,56,0.00,,,0.00,WUHU216HW,2013-02-15 11:30:00,
2013-02-15 14:35:00,75.1,58.3,29.98,ESE,113,5.1,9.2,56,0.00,,,0.00,WUHU216HW,2013-02-15 11:35:00,
2013-02-15 14:40:00,75.2,58.5,29.98,East,90,5.6,9.4,56,0.00,,,0.00,WUHU216HW,2013-02-15 11:40:00,
2013-02-15 14:45:00,75.2,58.5,29.98,East,90,8.3,9.4,56,0.00,,,0.00,WUHU216HW,2013-02-15 11:45:00,
2013-02-15 14:51:00,75.2,59.5,29.98,ENE,68,5.4,9.4,58,0.00,,,0.00,WUHU216HW,2013-02-15 11:51:00,
2013-02-15 14:56:00,75.4,59.7,29.98,East,90,6.5,9.4,58,0.00,,,0.00,WUHU216HW,2013-02-15 11:56:00,
2013-02-15 15:01:00,75.4,59.1,29.98,NE,45,7.4,11.2,57,0.00,,,0.00,WUHU216HW,2013-02-15 12:01:00,
2013-02-15 15:06:00,75.4,60.1,29.98,ENE,68,3.4,11.2,59,0.00,,,0.00,WUHU216HW,2013-02-15 12:06:00,
2013-02-15 15:11:00,75.4,59.7,29.98,NNE,23,5.6,8.9,58,0.00,,,0.00,WUHU216HW,2013-02-15 12:11:00,
2013-02-15 15:16:00,75.4,60.1,29.98,NNE,23,5.4,9.8,59,0.00,,,0.00,WUHU216HW,2013-02-15 12:16:00,
2013-02-15 15:21:00,75.2,59.9,29.98,West,270,4.9,9.8,59,0.00,,,0.00,WUHU216HW,2013-02-15 12:21:00,
2013-02-15 15:26:00,75.1,60.3,29.98,ENE,68,4.7,10.1,60,0.00,,,0.00,WUHU216HW,2013-02-15 12:26:00,
2013-02-15 15:31:00,74.9,60.6,29.98,ENE,68,5.1,10.1,61,0.00,,,0.00,WUHU216HW,2013-02-15 12:31:00,
2013-02-15 15:36:00,74.9,60.6,29.98,NNE,23,5.6,8.7,61,0.00,,,0.00,WUHU216HW,2013-02-15 12:36:00,
2013-02-15 15:41:00,74.9,60.6,29.98,NE,45,2.7,8.7,61,0.00,,,0.00,WUHU216HW,2013-02-15 12:41:00,
2013-02-15 15:46:00,74.9,61.0,29.98,NE,45,5.6,7.4,62,0.00,,,0.00,WUHU216HW,2013-02-15 12:46:00,
2013-02-15 15:51:00,75.1,61.2,29.98,NNE,23,4.7,7.2,62,0.00,,,0.00,WUHU216HW,2013-02-15 12:51:00,
2013-02-15 15:56:00,75.2,61.4,29.98,East,90,3.6,8.5,62,0.00,,,0.00,WUHU216HW,2013-02-15 12:56:00,
2013-02-15 16:01:00,75.1,61.6,29.98,NNE,23,5.6,8.5,63,0.00,,,0.00,WUHU216HW,2013-02-15 13:01:00,
2013-02-15 16:06:00,75.1,61.6,29.98,NNE,23,6.5,7.2,63,0.00,,,0.00,WUHU216HW,2013-02-15 13:06:00,
2013-02-15 16:11:00,74.5,61.6,29.99,NE,45,5.4,7.6,64,0.00,,,0.00,WUHU216HW,2013-02-15 13:11:00,
2013-02-15 16:16:00,74.5,61.9,29.98,ESE,113,4.3,8.3,65,0.00,,,0.00,WUHU216HW,2013-02-15 13:16:00,
2013-02-15 16:21:00,74.2,61.7,29.99,East,90,3.6,8.3,65,0.00,,,0.00,WUHU216HW,2013-02-15 13:21:00,
2013-02-15 16:26:00,74.0,61.9,29.99,East,90,3.6,6.7,66,0.00,,,0.00,WUHU216HW,2013-02-15 13:26:00,
2013-02-15 16:31:00,74.0,61.9,29.99,ESE,113,2.5,6.5,66,0.00,,,0.00,WUHU216HW,2013-02-15 13:31:00,
2013-02-15 16:36:00,73.8,61.8,29.99,ESE,113,3.4,8.7,66,0.00,,,0.00,WUHU216HW,2013-02-15 13:36:00,
2013-02-15 16:41:00,73.6,61.6,29.99,East,90,2.9,8.7,66,0.00,,,0.00,WUHU216HW,2013-02-15 13:41:00,
2013-02-15 16:46:00,73.3,62.1,29.99,ENE,68,2.2,7.2,68,0.00,,,0.00,WUHU216HW,2013-02-15 13:46:00,
2013-02-15 16:51:00,73.1,62.4,29.99,ENE,68,5.4,6.9,69,0.00,,,0.00,WUHU216HW,2013-02-15 13:51:00,
2013-02-15 16:56:00,72.5,61.8,29.99,North,0,2.9,8.1,69,0.00,,,0.00,WUHU216HW,2013-02-15 13:56:00,
2013-02-15 17:01:00,72.4,61.7,29.99,North,0,4.7,8.1,69,0.00,,,0.00,WUHU216HW,2013-02-15 14:01:00,
2013-02-15 17:06:00,72.2,61.9,29.99,North,0,7.8,7.8,70,0.00,,,0.00,WUHU216HW,2013-02-15 14:06:00,
2013-02-15 17:11:00,71.8,61.6,29.99,ENE,68,4.0,7.8,70,0.00,,,0.00,WUHU216HW,2013-02-15 14:11:00,
2013-02-15 17:16:00,71.6,61.4,29.99,ENE,68,4.7,7.8,70,0.00,,,0.00,WUHU216HW,2013-02-15 14:16:00,
2013-02-15 17:21:00,71.3,61.0,29.99,SSE,158,1.8,5.8,70,0.00,,,0.00,WUHU216HW,2013-02-15 14:21:00,
2013-02-15 17:26:00,71.3,61.4,29.99,NE,45,4.0,6.3,71,0.00,,,0.00,WUHU216HW,2013-02-15 14:26:00,
2013-02-15 17:31:00,71.1,61.6,29.99,SE,135,2.5,6.5,72,0.00,,,0.00,WUHU216HW,2013-02-15 14:31:00,
2013-02-15 17:36:00,70.9,61.8,29.99,NE,45,1.8,6.5,73,0.00,,,0.00,WUHU216HW,2013-02-15 14:36:00,
2013-02-15 17:41:00,70.9,61.8,29.99,ENE,68,1.6,5.6,73,0.00,,,0.00,WUHU216HW,2013-02-15 14:41:00,
2013-02-15 17:46:00,70.6,61.5,29.99,ESE,113,3.4,6.5,73,0.00,,,0.00,WUHU216HW,2013-02-15 14:46:00,
2013-02-15 17:51:00,70.6,61.8,29.99,ENE,68,2.0,6.5,74,0.00,,,0.00,WUHU216HW,2013-02-15 14:51:00,
2013-02-15 17:56:00,70.4,61.7,29.99,ENE,68,1.8,4.5,74,0.00,,,0.00,WUHU216HW,2013-02-15 14:56:00,
2013-02-15 18:01:00,70.2,61.5,29.99,East,90,1.6,4.5,74,0.00,,,0.00,WUHU216HW,2013-02-15 15:01:00,
2013-02-15 18:06:00,70.2,61.5,29.99,NE,45,2.7,4.5,74,0.00,,,0.00,WUHU216HW,2013-02-15 15:06:00,
2013-02-15 18:11:00,70.2,61.8,29.99,East,90,2.0,4.3,75,0.00,,,0.00,WUHU216HW,2013-02-15 15:11:00,
2013-02-15 18:16:00,70.0,61.7,29.99,East,90,3.6,5.4,75,0.00,,,0.00,WUHU216HW,2013-02-15 15:16:00,
2013-02-15 18:21:00,69.8,61.8,29.99,North,0,2.0,5.4,76,0.00,,,0.00,WUHU216HW,2013-02-15 15:21:00,
2013-02-15 18:26:00,69.8,61.8,29.99,NE,45,4.3,4.3,76,0.00,,,0.00,WUHU216HW,2013-02-15 15:26:00,
2013-02-15 18:31:00,69.8,62.2,29.99,East,90,1.3,4.7,77,0.00,,,0.00,WUHU216HW,2013-02-15 15:31:00,
2013-02-15 18:36:00,69.7,62.1,29.99,ESE,113,1.6,4.7,77,0.00,,,0.00,WUHU216HW,2013-02-15 15:36:00,
2013-02-15 18:41:00,69.7,62.1,30.00,NE,45,4.0,4.0,77,0.00,,,0.00,WUHU216HW,2013-02-15 15:41:00,
2013-02-15 18:46:00,69.5,61.9,30.00,ENE,68,2.9,4.3,77,0.00,,,0.00,WUHU216HW,2013-02-15 15:46:00,
2013-02-15 18:51:00,69.5,61.9,30.00,East,90,2.2,4.5,77,0.00,,,0.00,WUHU216HW,2013-02-15 15:51:00,
2013-02-15 18:56:00,69.5,61.9,30.00,ENE,68,2.2,4.5,77,0.00,,,0.00,WUHU216HW,2013-02-15 15:56:00,
2013-02-15 19:01:00,69.5,61.9,30.00,ENE,68,4.7,4.7,77,0.00,,,0.00,WUHU216HW,2013-02-15 16:01:00,
2013-02-15 19:06:00,69.3,62.1,30.01,East,90,4.0,4.7,78,0.00,,,0.00,WUHU216HW,2013-02-15 16:06:00,
2013-02-15 19:11:00,69.3,62.1,30.01,NE,45,3.6,4.9,78,0.00,,,0.00,WUHU216HW,2013-02-15 16:11:00,
2013-02-15 19:16:00,69.3,62.1,30.01,East,90,4.0,4.9,78,0.00,,,0.00,WUHU216HW,2013-02-15 16:16:00,
2013-02-15 19:21:00,69.3,62.1,30.01,East,90,1.8,5.1,78,0.00,,,0.00,WUHU216HW,2013-02-15 16:21:00,
2013-02-15 19:26:00,69.1,61.9,30.01,East,90,1.6,5.4,78,0.00,,,0.00,WUHU216HW,2013-02-15 16:26:00,
2013-02-15 19:31:00,69.1,62.4,30.01,East,90,2.5,5.4,79,0.00,,,0.00,WUHU216HW,2013-02-15 16:31:00,
2013-02-15 19:36:00,69.1,61.9,30.01,East,90,4.0,5.1,78,0.00,,,0.00,WUHU216HW,2013-02-15 16:36:00,
2013-02-15 19:41:00,68.9,62.2,30.01,East,90,3.6,5.1,79,0.00,,,0.00,WUHU216HW,2013-02-15 16:41:00,
2013-02-15 19:46:00,68.9,62.2,30.01,ENE,68,3.8,4.7,79,0.00,,,0.00,WUHU216HW,2013-02-15 16:46:00,
2013-02-15 19:51:00,68.9,62.2,30.01,East,90,3.1,4.9,79,0.00,,,0.00,WUHU216HW,2013-02-15 16:51:00,
2013-02-15 19:56:00,68.8,62.0,30.01,NE,45,3.8,7.2,79,0.00,,,0.00,WUHU216HW,2013-02-15 16:56:00,
2013-02-15 20:01:00,68.8,62.0,30.01,ENE,68,4.7,7.2,79,0.00,,,0.00,WUHU216HW,2013-02-15 17:01:00,
2013-02-15 20:06:00,68.8,62.0,30.02,ENE,68,3.8,4.7,79,0.00,,,0.00,WUHU216HW,2013-02-15 17:06:00,
2013-02-15 20:11:00,68.8,62.4,30.02,ENE,68,1.1,4.7,80,0.00,,,0.00,WUHU216HW,2013-02-15 17:11:00,
2013-02-15 20:16:00,68.8,62.7,30.02,NW,315,1.6,4.5,81,0.00,,,0.00,WUHU216HW,2013-02-15 17:16:00,
2013-02-15 20:21:00,68.4,62.4,30.01,NW,315,0.0,2.9,81,0.00,,,0.00,WUHU216HW,2013-02-15 17:21:00,
2013-02-15 20:26:00,68.2,62.2,30.02,NW,315,0.0,2.9,81,0.00,,,0.00,WUHU216HW,2013-02-15 17:26:00,
2013-02-15 20:31:00,68.0,62.1,30.02,West,270,2.7,2.7,81,0.00,,,0.00,WUHU216HW,2013-02-15 17:31:00,
2013-02-15 20:36:00,67.9,61.9,30.02,NW,315,1.3,3.4,81,0.00,,,0.00,WUHU216HW,2013-02-15 17:36:00,
2013-02-15 20:41:00,67.7,61.8,30.02,NNW,338,1.8,3.4,81,0.00,,,0.00,WUHU216HW,2013-02-15 17:41:00,
2013-02-15 20:46:00,67.7,62.0,30.02,WNW,293,1.1,2.5,82,0.00,,,0.00,WUHU216HW,2013-02-15 17:46:00,
2013-02-15 20:51:00,67.5,61.8,30.02,North,0,0.0,2.5,82,0.00,,,0.00,WUHU216HW,2013-02-15 17:51:00,
2013-02-15 20:56:00,67.5,61.8,30.01,NW,315,0.4,1.6,82,0.00,,,0.00,WUHU216HW,2013-02-15 17:56:00,
2013-02-15 21:01:00,67.5,61.8,30.02,NW,315,1.1,1.8,82,0.00,,,0.00,WUHU216HW,2013-02-15 18:01:00,
2013-02-15 21:06:00,67.3,62.0,30.02,NW,315,2.0,2.5,83,0.00,,,0.00,WUHU216HW,2013-02-15 18:06:00,
2013-02-15 21:11:00,67.3,62.3,30.02,NW,315,1.8,2.5,84,0.00,,,0.00,WUHU216HW,2013-02-15 18:11:00,
2013-02-15 21:16:00,67.1,62.1,30.02,NNW,338,0.4,3.4,84,0.00,,,0.00,WUHU216HW,2013-02-15 18:16:00,
2013-02-15 21:21:00,67.1,62.1,30.02,NW,315,1.1,3.4,84,0.00,,,0.00,WUHU216HW,2013-02-15 18:21:00,
2013-02-15 21:26:00,67.0,61.9,30.02,NW,315,1.6,2.9,84,0.00,,,0.00,WUHU216HW,2013-02-15 18:26:00,
2013-02-15 21:31:00,67.0,61.9,30.02,NW,315,1.1,2.5,84,0.00,,,0.00,WUHU216HW,2013-02-15 18:31:00,
2013-02-15 21:36:00,67.0,61.9,30.01,NW,315,1.3,1.6,84,0.00,,,0.00,WUHU216HW,2013-02-15 18:36:00,
2013-02-15 21:41:00,67.0,61.9,30.01,NW,315,0.7,1.8,84,0.00,,,0.00,WUHU216HW,2013-02-15 18:41:00,
2013-02-15 21:46:00,67.0,61.9,30.01,WNW,293,1.3,1.8,84,0.00,,,0.00,WUHU216HW,2013-02-15 18:46:00,
2013-02-15 21:51:00,66.8,61.7,30.01,NW,315,0.2,1.8,84,0.00,,,0.00,WUHU216HW,2013-02-15 18:51:00,
2013-02-15 21:56:00,66.8,61.7,30.01,West,270,2.5,2.5,84,0.00,,,0.00,WUHU216HW,2013-02-15 18:56:00,
2013-02-15 22:01:00,66.6,61.6,30.01,WNW,293,2.0,2.5,84,0.00,,,0.00,WUHU216HW,2013-02-15 19:01:00,
2013-02-15 22:06:00,66.4,61.4,30.01,WNW,293,1.6,2.5,84,0.00,,,0.00,WUHU216HW,2013-02-15 19:06:00,
2013-02-15 22:11:00,66.4,61.4,30.01,NW,315,0.9,2.0,84,0.00,,,0.00,WUHU216HW,2013-02-15 19:11:00,
2013-02-15 22:16:00,66.2,61.2,30.01,NW,315,0.0,1.6,84,0.00,,,0.00,WUHU216HW,2013-02-15 19:16:00,
2013-02-15 22:21:00,66.1,61.0,30.01,NW,315,0.7,1.3,84,0.00,,,0.00,WUHU216HW,2013-02-15 19:21:00,
2013-02-15 22:26:00,66.1,61.0,30.01,NW,315,0.2,1.1,84,0.00,,,0.00,WUHU216HW,2013-02-15 19:26:00,
2013-02-15 22:31:00,66.1,61.0,30.01,NW,315,0.2,1.1,84,0.00,,,0.00,WUHU216HW,2013-02-15 19:31:00,
2013-02-15 22:36:00,65.9,60.9,30.01,NW,315,0.0,0.9,84,0.00,,,0.00,WUHU216HW,2013-02-15 19:36:00,
2013-02-15 22:41:00,65.9,60.9,30.01,NW,315,0.0,0.7,84,0.00,,,0.00,WUHU216HW,2013-02-15 19:41:00,
2013-02-15 22:46:00,65.9,60.9,30.01,NW,315,2.5,2.5,84,0.00,,,0.00,WUHU216HW,2013-02-15 19:46:00,
2013-02-15 22:51:00,65.9,60.9,30.01,NW,315,1.6,2.5,84,0.00,,,0.00,WUHU216HW,2013-02-15 19:51:00,
2013-02-15 22:56:00,65.7,60.8,30.01,NNW,338,1.8,2.5,84,0.00,,,0.00,WUHU216HW,2013-02-15 19:56:00,
2013-02-15 23:01:00,65.5,60.6,30.01,NW,315,1.8,2.5,84,0.00,,,0.00,WUHU216HW,2013-02-15 20:01:00,
2013-02-15 23:06:00,65.3,60.4,30.01,NW,315,0.9,2.5,84,0.00,,,0.00,WUHU216HW,2013-02-15 20:06:00,
2013-02-15 23:11:00,65.2,60.2,30.01,NW,315,2.7,2.7,84,0.00,,,0.00,WUHU216HW,2013-02-15 20:11:00,
2013-02-15 23:16:00,65.2,60.2,30.00,WNW,293,2.2,2.7,84,0.00,,,0.00,WUHU216HW,2013-02-15 20:16:00,
2013-02-15 23:21:00,64.8,59.9,30.00,NW,315,0.7,2.7,84,0.00,,,0.00,WUHU216HW,2013-02-15 20:21:00,
2013-02-15 23:26:00,64.8,59.9,30.00,NW,315,0.4,2.0,84,0.00,,,0.00,WUHU216HW,2013-02-15 20:26:00,
2013-02-15 23:31:00,64.8,59.9,30.00,NW,315,1.6,2.5,84,0.00,,,0.00,WUHU216HW,2013-02-15 20:31:00,
2013-02-15 23:36:00,64.6,59.3,30.00,NW,315,1.1,2.5,83,0.00,,,0.00,WUHU216HW,2013-02-15 20:36:00,
2013-02-15 23:41:00,64.4,59.1,30.00,West,270,1.1,2.7,83,0.00,,,0.00,WUHU216HW,2013-02-15 20:41:00,
2013-02-15 23:46:00,64.3,59.0,30.00,NW,315,1.1,2.7,83,0.00,,,0.00,WUHU216HW,2013-02-15 20:46:00,
2013-02-15 23:51:00,64.1,58.8,30.00,NW,315,0.4,1.8,83,0.00,,,0.00,WUHU216HW,2013-02-15 20:51:00,
2013-02-15 23:56:00,64.1,58.8,30.00,NNW,338,0.4,1.8,83,0.00,,,0.00,WUHU216HW,2013-02-15 20:56:00,